Time;durP1;ratioP1;P1;durP2;ratioP2;P2;SDS_P1;SDS_P2;PMS_P1;PMS_P2;Temp;Humidity;BMP_temperature;BMP_pressure;BME280_temperature;BME280_humidity;BME280_pressure;Samples;Min_cycle;Max_cycle;Signal;HPM_P1;HPM_P2
2022/11/15 00:01:16;;;;;;;8.85;6.43;;;14.30;64.10;;;;;;5086752;27;45297;-69
2022/11/15 00:03:43;;;;;;;10.13;6.57;;;14.30;64.20;;;;;;5086850;27;45311;-69
2022/11/15 00:06:10;;;;;;;7.70;6.68;;;14.30;64.20;;;;;;5086734;27;46401;-70
2022/11/15 00:08:37;;;;;;;10.18;6.93;;;14.30;64.20;;;;;;5086854;27;45302;-69
2022/11/15 00:11:04;;;;;;;8.18;6.47;;;14.30;64.20;;;;;;5086933;27;45255;-69
2022/11/15 00:13:32;;;;;;;7.03;6.32;;;14.30;64.20;;;;;;5087092;27;45391;-69
2022/11/15 00:15:59;;;;;;;7.57;6.25;;;14.30;64.20;;;;;;5086731;27;46712;-70
2022/11/15 00:18:26;;;;;;;7.70;6.30;;;14.30;64.20;;;;;;5086860;27;46035;-69
2022/11/15 00:20:53;;;;;;;8.00;6.47;;;14.30;64.20;;;;;;5091938;27;45394;-69
2022/11/15 00:23:19;;;;;;;7.28;6.10;;;14.30;64.20;;;;;;5087567;27;45173;-71
2022/11/15 00:25:46;;;;;;;8.95;6.72;;;14.30;64.20;;;;;;5086503;27;46672;-70
2022/11/15 00:28:13;;;;;;;8.65;6.43;;;14.30;64.20;;;;;;5086558;27;45160;-70
2022/11/15 00:30:41;;;;;;;7.35;5.90;;;14.30;64.20;;;;;;5086682;27;45299;-70
2022/11/15 00:33:09;;;;;;;6.93;6.13;;;14.30;64.20;;;;;;5086843;27;45284;-69
2022/11/15 00:35:36;;;;;;;7.38;6.03;;;14.30;64.20;;;;;;5086339;27;47335;-70
2022/11/15 00:38:03;;;;;;;8.70;6.32;;;14.30;64.20;;;;;;5086382;27;45240;-69
2022/11/15 00:40:30;;;;;;;10.05;6.35;;;14.30;64.20;;;;;;5086543;27;45404;-70
2022/11/15 00:42:57;;;;;;;7.32;6.55;;;14.30;65.00;;;;;;5086253;27;45368;-69
2022/11/15 00:45:24;;;;;;;8.57;7.13;;;14.30;64.30;;;;;;5085721;27;46365;-70
2022/11/15 00:47:52;;;;;;;6.45;5.82;;;14.30;64.30;;;;;;5086201;27;45354;-69
2022/11/15 00:50:19;;;;;;;9.15;6.40;;;14.30;64.30;;;;;;5086118;28;45457;-69
2022/11/15 00:52:46;;;;;;;7.90;5.97;;;14.30;64.40;;;;;;5086517;27;45408;-69
2022/11/15 00:55:15;;;;;;;7.85;6.50;;;14.30;64.30;;;;;;5085838;27;45482;-69
2022/11/15 00:57:42;;;;;;;8.45;6.60;;;14.30;64.40;;;;;;5086162;28;45204;-70
2022/11/15 01:00:09;;;;;;;8.02;6.20;;;14.30;64.40;;;;;;5086225;27;45244;-69
2022/11/15 01:02:36;;;;;;;8.20;5.93;;;14.30;64.30;;;;;;5086399;27;45275;-70
2022/11/15 01:05:06;;;;;;;8.73;5.85;;;14.30;64.30;;;;;;5086022;27;46426;-69
2022/11/15 01:07:33;;;;;;;7.40;5.95;;;14.30;64.30;;;;;;5085796;27;45213;-70
2022/11/15 01:10:00;;;;;;;7.65;6.15;;;14.30;64.30;;;;;;5085903;27;45402;-70
2022/11/15 01:12:27;;;;;;;8.35;6.15;;;14.30;64.30;;;;;;5086038;27;45271;-69
2022/11/15 01:14:54;;;;;;;9.32;6.65;;;14.30;64.40;;;;;;5086366;27;46407;-69
2022/11/15 01:17:21;;;;;;;7.90;5.78;;;14.20;64.40;;;;;;5089094;27;45189;-70
2022/11/15 01:19:48;;;;;;;7.43;6.28;;;14.20;65.20;;;;;;5089479;27;45247;-69
2022/11/15 01:22:16;;;;;;;8.63;6.10;;;14.20;64.40;;;;;;5089483;27;45411;-69
2022/11/15 01:24:43;;;;;;;8.50;6.40;;;14.20;64.40;;;;;;5089094;27;46372;-69
2022/11/15 01:27:09;;;;;;;8.23;6.25;;;14.20;64.40;;;;;;5088840;27;45122;-69
2022/11/15 01:29:36;;;;;;;8.20;6.07;;;14.20;64.50;;;;;;5088711;27;45242;-69
2022/11/15 01:32:03;;;;;;;8.43;5.82;;;14.20;64.40;;;;;;5089175;27;45327;-69
2022/11/15 01:34:30;;;;;;;7.78;5.97;;;14.20;64.40;;;;;;5088912;27;46397;-69
2022/11/15 01:36:57;;;;;;;7.93;6.10;;;14.20;64.50;;;;;;5088952;27;45371;-69
2022/11/15 01:39:26;;;;;;;6.55;5.68;;;14.20;64.40;;;;;;5089053;27;45314;-69
2022/11/15 01:41:53;;;;;;;6.60;5.78;;;14.20;64.40;;;;;;5088938;27;45587;-70
2022/11/15 01:44:42;;;;;;;6.63;6.03;;;14.20;64.40;;;;;;5088861;27;45372;-70
2022/11/15 01:47:11;;;;;;;8.10;6.25;;;14.20;64.50;;;;;;5085455;27;45246;-69
2022/11/15 01:49:39;;;;;;;7.68;5.68;;;14.20;64.40;;;;;;5088866;27;45227;-69
2022/11/15 01:52:08;;;;;;;6.53;5.68;;;14.20;64.40;;;;;;5088801;27;45608;-70
2022/11/15 01:54:36;;;;;;;6.25;5.45;;;14.20;64.50;;;;;;5088515;27;46880;-69
2022/11/15 01:57:04;;;;;;;7.05;5.90;;;14.20;64.40;;;;;;5088685;27;45199;-69
2022/11/15 01:59:31;;;;;;;7.78;6.00;;;14.20;64.50;;;;;;5088671;27;45274;-69
2022/11/15 02:01:59;;;;;;;5.78;4.82;;;14.20;64.50;;;;;;5088773;27;45373;-69
2022/11/15 02:04:26;;;;;;;7.10;5.63;;;14.20;64.50;;;;;;5088443;27;47508;-69
2022/11/15 02:06:53;;;;;;;6.78;5.90;;;14.20;64.40;;;;;;5088494;27;45134;-69
2022/11/15 02:09:20;;;;;;;7.55;5.80;;;14.20;64.50;;;;;;5088472;27;45373;-70
2022/11/15 02:11:48;;;;;;;6.65;5.35;;;14.20;64.40;;;;;;5088455;27;45461;-69
2022/11/15 02:14:15;;;;;;;8.02;5.97;;;14.20;64.40;;;;;;5088210;27;46406;-69
2022/11/15 02:16:45;;;;;;;6.88;5.00;;;14.20;64.50;;;;;;5088161;27;45246;-69
2022/11/15 02:19:21;;;;;;;6.88;5.55;;;14.20;64.40;;;;;;5088149;27;45484;-69
2022/11/15 02:21:50;;;;;;;7.07;5.40;;;14.20;64.40;;;;;;5088197;27;45341;-69
2022/11/15 02:24:43;;;;;;;6.47;5.57;;;14.20;64.40;;;;;;5087723;27;45239;-69
2022/11/15 02:27:50;;;;;;;5.80;5.03;;;14.20;64.50;;;;;;5087814;27;45363;-69
2022/11/15 02:30:26;;;;;;;6.78;4.95;;;14.20;64.40;;;;;;5088137;27;45271;-69
2022/11/15 02:32:55;;;;;;;5.97;5.18;;;14.20;64.50;;;;;;5088023;27;45452;-69
2022/11/15 02:35:26;;;;;;;7.68;5.40;;;14.20;64.50;;;;;;5087727;27;46287;-70
2022/11/15 02:37:55;;;;;;;6.50;5.65;;;14.20;64.50;;;;;;5087722;27;45234;-69
2022/11/15 02:40:28;;;;;;;6.22;5.45;;;14.20;64.50;;;;;;5087931;27;45281;-69
2022/11/15 02:45:45;;;;;;;6.25;5.65;;;14.20;64.40;;;;;;5085055;28;45907;-69
2022/11/15 02:48:12;;;;;;;7.90;5.70;;;14.20;64.50;;;;;;5087815;27;45201;-69
2022/11/15 02:50:39;;;;;;;6.05;5.25;;;14.20;64.50;;;;;;5087398;27;45203;-69
2022/11/15 02:53:05;;;;;;;6.50;5.28;;;14.20;64.50;;;;;;5087885;27;45262;-69
2022/11/15 02:55:33;;;;;;;6.22;5.20;;;14.20;64.50;;;;;;5087676;27;46385;-70
2022/11/15 02:58:13;;;;;;;8.05;5.75;;;14.20;64.40;;;;;;5087022;27;45415;-70
2022/11/15 03:00:43;;;;;;;7.07;5.32;;;14.20;64.40;;;;;;5087247;27;45216;-69
2022/11/15 03:03:18;;;;;;;7.38;5.85;;;14.20;64.50;;;;;;5087337;27;45353;-69
2022/11/15 03:05:47;;;;;;;6.47;5.60;;;14.20;64.50;;;;;;5086901;27;46419;-69
2022/11/15 03:08:17;;;;;;;8.35;5.63;;;14.20;64.50;;;;;;5087495;27;45323;-69
2022/11/15 03:10:47;;;;;;;6.78;5.88;;;14.20;64.50;;;;;;5087529;27;45286;-69
2022/11/15 03:13:21;;;;;;;7.82;6.30;;;14.20;64.50;;;;;;5087651;27;45179;-69
2022/11/15 03:15:52;;;;;;;5.43;4.82;;;14.20;64.50;;;;;;5087342;27;45406;-69
2022/11/15 03:18:21;;;;;;;6.30;5.00;;;14.20;64.50;;;;;;5087236;27;45322;-69
2022/11/15 03:20:48;;;;;;;6.93;5.30;;;14.20;64.40;;;;;;5087479;27;45187;-69
2022/11/15 03:23:15;;;;;;;5.90;5.13;;;14.20;64.40;;;;;;5087706;27;45193;-69
2022/11/15 03:25:47;;;;;;;6.72;5.00;;;14.20;64.40;;;;;;5087207;27;46704;-69
2022/11/15 03:28:17;;;;;;;6.75;4.93;;;14.20;64.40;;;;;;5087156;27;45233;-69
2022/11/15 03:30:44;;;;;;;6.00;5.03;;;14.20;64.30;;;;;;5087416;27;45268;-69
2022/11/15 03:33:12;;;;;;;5.60;4.90;;;14.20;64.40;;;;;;5087410;27;45491;-69
2022/11/15 03:35:41;;;;;;;5.22;4.50;;;14.20;64.30;;;;;;5086910;27;46402;-69
2022/11/15 03:38:10;;;;;;;6.10;5.15;;;14.20;64.40;;;;;;5086453;27;45307;-69
2022/11/15 03:40:38;;;;;;;5.32;4.78;;;14.20;65.20;;;;;;5087169;27;45271;-69
2022/11/15 03:43:07;;;;;;;6.03;4.65;;;14.20;65.10;;;;;;5087407;27;45356;-69
2022/11/15 03:45:36;;;;;;;4.88;4.47;;;14.20;64.40;;;;;;5086964;27;46639;-69
2022/11/15 03:48:06;;;;;;;6.05;4.95;;;14.20;64.40;;;;;;5086846;27;45198;-69
2022/11/15 03:50:34;;;;;;;5.50;5.00;;;14.20;64.40;;;;;;5086755;27;45290;-70
2022/11/15 03:53:01;;;;;;;5.35;4.60;;;14.20;64.40;;;;;;5087212;27;45471;-69
2022/11/15 03:55:28;;;;;;;5.35;4.45;;;14.20;64.30;;;;;;5086701;27;46335;-69
2022/11/15 03:57:58;;;;;;;5.40;4.85;;;14.20;64.40;;;;;;5086813;27;45188;-70
2022/11/15 04:00:25;;;;;;;4.78;4.00;;;14.20;64.40;;;;;;5086385;27;45313;-69
2022/11/15 04:02:51;;;;;;;4.40;4.00;;;14.20;64.40;;;;;;5086823;27;45319;-70
2022/11/15 04:05:18;;;;;;;5.72;4.53;;;14.20;64.40;;;;;;5086437;27;45224;-70
2022/11/15 04:07:47;;;;;;;4.97;4.45;;;14.20;64.30;;;;;;5086697;27;45207;-69
2022/11/15 04:10:14;;;;;;;5.72;4.38;;;14.20;64.30;;;;;;5086729;27;45407;-69
2022/11/15 04:12:42;;;;;;;6.18;4.40;;;14.20;64.20;;;;;;5086989;27;45355;-69
2022/11/15 04:15:11;;;;;;;5.90;4.72;;;14.20;64.30;;;;;;5086478;27;45338;-70
2022/11/15 04:17:39;;;;;;;4.80;4.13;;;14.20;64.40;;;;;;5086450;27;45349;-69
2022/11/15 04:25:39;;;;;;;5.35;4.78;;;14.20;64.40;;;;;;5086740;28;45219;-69
2022/11/15 04:28:06;;;;;;;6.35;4.28;;;14.20;64.40;;;;;;5086343;27;45220;-69
2022/11/15 04:30:32;;;;;;;5.13;4.63;;;14.20;64.40;;;;;;5086642;27;45372;-69
2022/11/15 04:32:59;;;;;;;5.82;4.25;;;14.20;64.40;;;;;;5086699;27;45274;-69
2022/11/15 04:35:26;;;;;;;6.00;4.57;;;14.20;64.30;;;;;;5086078;27;46418;-69
2022/11/15 04:37:54;;;;;;;6.65;4.70;;;14.20;64.20;;;;;;5086266;27;45154;-69
2022/11/15 04:40:21;;;;;;;5.78;4.50;;;14.20;64.30;;;;;;5086384;27;45187;-69
2022/11/15 04:42:48;;;;;;;5.75;5.00;;;14.20;65.10;;;;;;5086511;27;45509;-69
2022/11/15 04:45:15;;;;;;;5.47;4.32;;;14.20;65.00;;;;;;5086394;27;47468;-69
2022/11/15 04:47:44;;;;;;;5.72;4.60;;;14.20;64.30;;;;;;5086388;27;45323;-69
2022/11/15 04:50:13;;;;;;;5.85;4.72;;;14.20;64.30;;;;;;5087397;27;45266;-69
2022/11/15 04:52:40;;;;;;;6.15;5.20;;;14.20;64.20;;;;;;5090171;27;45209;-69
2022/11/15 04:55:09;;;;;;;4.68;4.15;;;14.20;64.30;;;;;;5089592;27;45406;-69
2022/11/15 04:57:36;;;;;;;4.60;4.15;;;14.20;64.20;;;;;;5089058;27;45188;-69
2022/11/15 05:00:03;;;;;;;6.05;4.80;;;14.20;64.30;;;;;;5089663;27;45248;-68
2022/11/15 05:04:18;;;;;;;5.97;4.55;;;14.20;64.40;;;;;;5089797;27;45299;-69
2022/11/15 05:05:16;;;;;;;4.35;3.95;;;14.20;65.20;;;;;;5088763;28;45338;-70
2022/11/15 05:07:43;;;;;;;4.82;4.28;;;14.20;64.40;;;;;;5089294;27;45225;-69
2022/11/15 05:10:11;;;;;;;5.07;3.95;;;14.20;64.40;;;;;;5089433;27;45250;-69
2022/11/15 05:12:38;;;;;;;4.40;4.00;;;14.20;64.40;;;;;;5089644;27;45383;-69
2022/11/15 05:15:06;;;;;;;4.20;3.80;;;14.20;64.40;;;;;;5089143;27;46412;-69
2022/11/15 05:17:33;;;;;;;6.20;5.05;;;14.20;64.30;;;;;;5089298;27;45294;-69
2022/11/15 05:20:00;;;;;;;5.00;4.13;;;14.20;64.30;;;;;;5089433;27;45169;-69
2022/11/15 05:22:27;;;;;;;5.25;4.35;;;14.20;64.30;;;;;;5089420;27;45395;-69
2022/11/15 05:24:54;;;;;;;4.72;4.05;;;14.20;65.00;;;;;;5089189;27;47260;-69
2022/11/15 05:27:22;;;;;;;5.38;4.20;;;14.20;64.30;;;;;;5089188;27;45297;-69
2022/11/15 05:29:49;;;;;;;4.43;4.00;;;14.20;64.40;;;;;;5089206;27;45308;-69
2022/11/15 05:32:16;;;;;;;5.70;4.28;;;14.20;64.30;;;;;;5089135;27;45232;-69
2022/11/15 05:34:43;;;;;;;5.07;3.97;;;14.20;65.10;;;;;;5088889;27;45410;-69
2022/11/15 05:37:10;;;;;;;5.50;4.30;;;14.20;64.40;;;;;;5088775;27;45289;-69
2022/11/15 05:39:37;;;;;;;5.00;3.95;;;14.20;64.40;;;;;;5089060;27;45310;-69
2022/11/15 05:42:06;;;;;;;4.53;4.05;;;14.20;64.40;;;;;;5088841;27;45434;-69
2022/11/15 05:44:35;;;;;;;4.13;3.70;;;14.20;64.40;;;;;;5088831;27;47621;-68
2022/11/15 05:47:02;;;;;;;4.25;3.85;;;14.20;64.40;;;;;;5088601;27;45307;-69
2022/11/15 05:49:31;;;;;;;4.55;4.00;;;14.20;64.40;;;;;;5088314;27;45179;-69
2022/11/15 05:51:58;;;;;;;5.40;4.50;;;14.20;64.30;;;;;;5088907;27;45146;-69
2022/11/15 05:54:24;;;;;;;4.63;4.05;;;14.10;65.10;;;;;;5088601;27;45239;-69
2022/11/15 05:56:51;;;;;;;5.05;4.30;;;14.10;64.40;;;;;;5088913;28;45323;-69
2022/11/15 05:59:18;;;;;;;4.72;4.22;;;14.10;64.30;;;;;;5088727;27;45214;-69
2022/11/15 06:01:47;;;;;;;5.38;4.18;;;14.10;64.30;;;;;;5088382;27;45248;-68
2022/11/15 06:04:13;;;;;;;4.63;3.92;;;14.10;64.30;;;;;;5088585;27;46490;-69
2022/11/15 06:06:40;;;;;;;4.43;4.00;;;14.10;64.40;;;;;;5088276;27;45352;-69
2022/11/15 06:09:07;;;;;;;4.32;3.70;;;14.10;65.10;;;;;;5088681;27;45232;-69
2022/11/15 06:11:34;;;;;;;4.90;3.65;;;14.10;64.40;;;;;;5088453;27;45250;-69
2022/11/15 06:14:01;;;;;;;4.35;3.75;;;14.10;64.20;;;;;;5088042;27;45543;-69
2022/11/15 06:16:28;;;;;;;4.18;3.45;;;14.10;64.20;;;;;;5088209;27;45193;-69
2022/11/15 06:18:56;;;;;;;4.32;3.90;;;14.10;64.30;;;;;;5088567;27;45255;-69
2022/11/15 06:21:23;;;;;;;4.55;3.67;;;14.20;64.30;;;;;;5088656;27;45486;-69
2022/11/15 06:23:50;;;;;;;4.00;3.60;;;14.10;64.30;;;;;;5088261;27;46413;-69
2022/11/15 06:26:17;;;;;;;4.47;3.33;;;14.10;64.20;;;;;;5088041;27;45288;-69
2022/11/15 06:28:43;;;;;;;4.40;3.70;;;14.10;64.30;;;;;;5088223;27;45279;-68
2022/11/15 06:31:11;;;;;;;4.22;3.83;;;14.10;64.30;;;;;;5087960;27;45279;-69
2022/11/15 06:33:38;;;;;;;4.95;3.72;;;14.10;64.40;;;;;;5087584;27;45227;-69
2022/11/15 06:36:08;;;;;;;5.35;3.78;;;14.10;64.30;;;;;;5088143;27;45194;-69
2022/11/15 06:38:35;;;;;;;4.18;3.78;;;14.10;64.40;;;;;;5088152;27;45335;-69
2022/11/15 06:41:02;;;;;;;4.00;3.63;;;14.10;64.30;;;;;;5088201;27;45282;-69
2022/11/15 06:43:29;;;;;;;4.63;3.80;;;14.10;64.30;;;;;;5087726;27;46376;-70
2022/11/15 06:45:56;;;;;;;4.05;3.53;;;14.10;64.20;;;;;;5087777;27;45243;-69
2022/11/15 06:48:23;;;;;;;4.43;3.40;;;14.10;64.20;;;;;;5088088;27;45187;-69
2022/11/15 06:50:52;;;;;;;4.50;2.90;;;14.10;64.20;;;;;;5087735;27;45532;-69
2022/11/15 06:53:20;;;;;;;4.45;4.05;;;14.10;64.20;;;;;;5087804;27;46569;-69
2022/11/15 06:55:47;;;;;;;3.92;3.53;;;14.10;64.90;;;;;;5087692;27;45218;-69
2022/11/15 06:58:14;;;;;;;4.05;3.65;;;14.20;64.20;;;;;;5087744;27;45288;-69
2022/11/15 07:00:41;;;;;;;3.50;3.20;;;14.10;64.10;;;;;;5087764;27;45418;-69
2022/11/15 07:03:08;;;;;;;4.15;3.25;;;14.20;64.20;;;;;;5087542;27;46689;-69
2022/11/15 07:05:35;;;;;;;5.30;4.30;;;14.10;64.20;;;;;;5087768;27;45285;-70
2022/11/15 07:08:02;;;;;;;3.53;3.20;;;14.10;64.20;;;;;;5087881;27;45171;-70
2022/11/15 07:10:31;;;;;;;4.03;3.30;;;14.10;64.20;;;;;;5087926;27;45403;-70
2022/11/15 07:12:57;;;;;;;4.53;3.22;;;14.10;64.20;;;;;;5085510;27;45481;-71
2022/11/15 07:15:25;;;;;;;3.65;3.15;;;14.10;64.20;;;;;;5086644;27;45344;-70
2022/11/15 07:17:52;;;;;;;4.22;3.50;;;14.10;64.30;;;;;;5087641;27;45167;-69
2022/11/15 07:20:19;;;;;;;3.83;3.22;;;14.10;64.30;;;;;;5088173;27;45348;-71
2022/11/15 07:22:46;;;;;;;4.00;3.58;;;14.10;64.40;;;;;;5087402;27;46616;-71
2022/11/15 07:25:13;;;;;;;3.60;3.15;;;14.10;65.10;;;;;;5087618;27;45305;-70
2022/11/15 07:27:41;;;;;;;3.92;3.42;;;14.10;64.40;;;;;;5087707;27;45321;-71
2022/11/15 07:30:09;;;;;;;3.38;3.08;;;14.10;65.10;;;;;;5087915;27;45442;-69
2022/11/15 07:32:36;;;;;;;4.32;3.22;;;14.10;64.40;;;;;;5086276;27;45373;-70
2022/11/15 07:35:03;;;;;;;4.50;3.20;;;14.10;64.40;;;;;;5087352;27;45485;-70
2022/11/15 07:37:30;;;;;;;4.10;3.30;;;14.10;65.20;;;;;;5087297;27;45231;-70
2022/11/15 07:39:57;;;;;;;4.40;3.20;;;14.10;64.50;;;;;;5087506;27;45378;-70
2022/11/15 07:45:10;;;;;;;2.88;2.67;;;14.10;64.40;;;;;;5084828;28;45214;-71
2022/11/15 07:47:37;;;;;;;3.47;3.08;;;14.10;64.50;;;;;;5087402;27;45298;-70
2022/11/15 07:50:04;;;;;;;3.75;3.45;;;14.10;64.50;;;;;;5087288;27;45318;-70
2022/11/15 07:52:31;;;;;;;3.78;3.35;;;14.10;64.50;;;;;;5087143;27;46350;-72
2022/11/15 07:54:58;;;;;;;3.33;2.95;;;14.10;64.60;;;;;;5087122;27;45226;-70
2022/11/15 07:57:25;;;;;;;3.00;2.80;;;14.10;64.60;;;;;;5087350;27;45401;-71
2022/11/15 07:59:51;;;;;;;3.33;3.03;;;14.10;64.60;;;;;;5087312;28;45469;-71
2022/11/15 08:02:20;;;;;;;3.58;3.00;;;14.10;64.70;;;;;;5086924;27;45386;-70
2022/11/15 08:04:46;;;;;;;3.35;2.90;;;14.10;65.40;;;;;;5086694;27;45197;-69
2022/11/15 08:07:13;;;;;;;4.30;3.60;;;14.10;64.60;;;;;;5086281;27;45185;-71
2022/11/15 08:09:40;;;;;;;3.65;3.03;;;14.10;65.30;;;;;;5087293;27;45256;-70
2022/11/15 08:12:08;;;;;;;4.40;3.40;;;14.10;64.60;;;;;;5086927;27;45285;-71
2022/11/15 08:14:35;;;;;;;3.83;3.53;;;14.10;64.60;;;;;;5086981;27;45330;-69
2022/11/15 08:17:02;;;;;;;3.28;2.97;;;14.10;64.60;;;;;;5087054;27;45319;-70
2022/11/15 08:19:30;;;;;;;4.32;3.50;;;14.10;64.60;;;;;;5087291;27;45184;-71
2022/11/15 08:21:57;;;;;;;3.58;3.13;;;14.20;64.70;;;;;;5086774;27;45302;-70
2022/11/15 08:24:24;;;;;;;3.83;3.20;;;14.20;64.70;;;;;;5088167;27;45474;-71
2022/11/15 08:26:50;;;;;;;3.13;2.78;;;14.20;64.60;;;;;;5090440;27;45272;-70
2022/11/15 08:29:17;;;;;;;3.75;2.92;;;14.20;64.60;;;;;;5090589;27;45399;-70
2022/11/15 08:31:44;;;;;;;3.00;2.70;;;14.20;64.50;;;;;;5090089;27;45341;-70
2022/11/15 08:34:11;;;;;;;3.58;3.20;;;14.30;64.40;;;;;;5090184;27;45297;-70
2022/11/15 08:36:39;;;;;;;3.25;2.95;;;14.30;65.00;;;;;;5090343;27;45290;-69
2022/11/15 08:39:06;;;;;;;3.10;2.80;;;14.30;64.20;;;;;;5090385;27;45218;-69
2022/11/15 08:41:35;;;;;;;3.13;2.80;;;14.30;64.20;;;;;;5089946;27;46336;-70
2022/11/15 08:44:02;;;;;;;3.10;2.80;;;14.30;64.20;;;;;;5090013;27;45312;-70
2022/11/15 08:46:29;;;;;;;3.38;2.88;;;14.30;64.10;;;;;;5090252;27;45426;-70
2022/11/15 08:48:56;;;;;;;3.03;2.72;;;14.30;64.20;;;;;;5089824;27;45360;-69
2022/11/15 08:51:23;;;;;;;3.30;3.00;;;14.30;64.10;;;;;;5089174;27;45228;-70
2022/11/15 08:53:51;;;;;;;3.15;2.90;;;14.30;64.20;;;;;;5089998;27;45215;-70
2022/11/15 08:56:18;;;;;;;3.63;3.22;;;14.30;64.20;;;;;;5090088;27;45298;-70
2022/11/15 08:58:45;;;;;;;3.67;3.08;;;14.40;64.20;;;;;;5090146;27;45307;-71
2022/11/15 09:01:16;;;;;;;3.42;2.85;;;14.30;64.20;;;;;;5089727;27;45239;-70
2022/11/15 09:03:43;;;;;;;3.60;2.92;;;14.40;64.30;;;;;;5089687;27;45293;-69
2022/11/15 09:06:10;;;;;;;2.85;2.65;;;14.30;64.20;;;;;;5089792;27;45380;-69
2022/11/15 09:08:37;;;;;;;3.30;3.00;;;14.40;64.30;;;;;;5090110;27;45432;-70
2022/11/15 09:11:07;;;;;;;3.03;2.53;;;14.40;64.30;;;;;;5089424;27;46480;-70
2022/11/15 09:13:36;;;;;;;3.20;2.90;;;14.40;64.30;;;;;;5089719;27;45366;-70
2022/11/15 09:16:04;;;;;;;3.20;2.90;;;14.40;64.30;;;;;;5089773;27;45255;-70
2022/11/15 09:18:30;;;;;;;4.65;3.08;;;14.40;64.30;;;;;;5089716;27;45316;-71
2022/11/15 09:20:57;;;;;;;3.30;2.65;;;14.40;64.30;;;;;;5084525;27;45478;-70
2022/11/15 09:23:24;;;;;;;2.75;2.42;;;14.40;64.30;;;;;;5089337;27;45333;-70
2022/11/15 09:25:51;;;;;;;2.85;2.42;;;14.50;64.20;;;;;;5089675;27;45193;-71
2022/11/15 09:28:20;;;;;;;2.85;2.55;;;14.50;64.10;;;;;;5089712;27;45188;-70
2022/11/15 09:30:46;;;;;;;2.95;2.65;;;14.40;64.20;;;;;;5089433;27;45540;-70
2022/11/15 09:33:13;;;;;;;3.63;2.83;;;14.50;64.30;;;;;;5089373;27;45371;-71
2022/11/15 09:35:40;;;;;;;3.08;2.78;;;14.50;64.30;;;;;;5087917;27;45438;-71
2022/11/15 09:38:08;;;;;;;2.85;2.53;;;14.50;64.30;;;;;;5089796;27;45485;-70
2022/11/15 09:40:37;;;;;;;3.17;2.80;;;14.50;64.40;;;;;;5088758;27;46558;-70
2022/11/15 09:43:10;;;;;;;3.42;2.80;;;14.50;64.40;;;;;;5089064;27;45275;-71
2022/11/15 09:45:42;;;;;;;3.38;3.05;;;14.50;64.50;;;;;;5089258;27;45318;-71
2022/11/15 09:48:42;;;;;;;3.40;2.70;;;14.60;64.60;;;;;;5089556;27;45182;-72
2022/11/15 09:51:13;;;;;;;3.47;2.58;;;14.60;64.60;;;;;;5088373;27;45359;-70
2022/11/15 09:53:43;;;;;;;4.85;3.10;;;14.60;64.70;;;;;;5088687;27;45215;-70
2022/11/15 09:56:14;;;;;;;3.80;2.45;;;14.60;64.80;;;;;;5089225;27;45339;-70
2022/11/15 09:58:45;;;;;;;6.78;2.83;;;14.60;64.70;;;;;;5089261;27;45343;-70
2022/11/15 10:01:16;;;;;;;3.42;2.60;;;14.60;64.70;;;;;;5088905;27;46740;-70
2022/11/15 10:03:45;;;;;;;2.85;2.55;;;14.70;65.40;;;;;;5088769;27;45401;-71
2022/11/15 10:06:18;;;;;;;2.47;2.28;;;14.70;64.70;;;;;;5088894;27;45260;-71
2022/11/15 10:08:51;;;;;;;3.08;2.63;;;14.60;64.60;;;;;;5089131;27;45272;-70
2022/11/15 10:11:20;;;;;;;3.58;2.70;;;14.70;64.60;;;;;;5088554;27;45865;-70
2022/11/15 10:13:49;;;;;;;3.35;2.47;;;14.70;64.70;;;;;;5088704;27;45223;-70
2022/11/15 10:16:26;;;;;;;5.07;2.70;;;14.70;64.60;;;;;;5088626;27;45296;-69
2022/11/15 10:18:55;;;;;;;3.30;2.72;;;14.70;64.70;;;;;;5088797;27;45431;-69
2022/11/15 10:21:24;;;;;;;3.00;2.70;;;14.70;64.60;;;;;;5088420;27;45383;-70
2022/11/15 10:23:52;;;;;;;3.78;2.90;;;14.70;64.70;;;;;;5088418;27;45312;-70
2022/11/15 10:26:18;;;;;;;3.90;2.80;;;14.70;64.70;;;;;;5088725;27;45291;-70
2022/11/15 10:28:45;;;;;;;2.50;2.30;;;14.80;65.60;;;;;;5088921;27;45388;-70
2022/11/15 10:31:24;;;;;;;3.55;2.70;;;14.70;64.90;;;;;;5088351;27;46715;-70
2022/11/15 10:33:51;;;;;;;3.35;3.05;;;14.70;64.90;;;;;;5088671;27;45386;-70
2022/11/15 10:36:21;;;;;;;2.63;2.42;;;14.80;65.00;;;;;;5088414;27;45391;-70
2022/11/15 10:38:56;;;;;;;2.65;2.45;;;14.80;65.10;;;;;;5088595;27;45187;-70
2022/11/15 10:41:30;;;;;;;2.78;2.38;;;14.80;65.30;;;;;;5088284;27;45540;-69
2022/11/15 10:44:26;;;;;;;3.50;2.40;;;14.80;65.10;;;;;;5088039;27;45241;-70
2022/11/15 10:47:27;;;;;;;3.60;2.50;;;14.80;65.10;;;;;;5086335;27;45217;-70
2022/11/15 10:49:55;;;;;;;5.13;2.55;;;14.80;65.10;;;;;;5088485;27;45248;-70
2022/11/15 10:52:24;;;;;;;2.58;2.30;;;14.80;65.00;;;;;;5088121;27;45243;-70
2022/11/15 10:54:53;;;;;;;4.63;2.50;;;14.90;65.30;;;;;;5088044;27;45252;-70
2022/11/15 10:57:21;;;;;;;5.40;2.60;;;14.90;65.10;;;;;;5088319;27;45260;-70
2022/11/15 10:59:48;;;;;;;3.50;2.60;;;14.90;65.80;;;;;;5088559;28;45448;-71
2022/11/15 11:02:33;;;;;;;2.63;2.17;;;14.90;65.40;;;;;;5088017;27;45490;-70
2022/11/15 11:05:01;;;;;;;4.05;2.50;;;14.90;65.40;;;;;;5087827;27;45319;-70
2022/11/15 11:07:28;;;;;;;2.38;2.17;;;14.90;65.20;;;;;;5088112;27;45327;-70
2022/11/15 11:09:59;;;;;;;2.78;2.47;;;14.90;65.50;;;;;;5088129;27;45544;-70
2022/11/15 11:12:31;;;;;;;3.03;2.70;;;14.90;65.50;;;;;;5087649;27;46798;-70
2022/11/15 11:14:59;;;;;;;3.17;2.30;;;14.90;65.60;;;;;;5087897;27;45204;-70
2022/11/15 11:17:33;;;;;;;2.90;2.53;;;14.90;65.50;;;;;;5087645;27;45337;-70
2022/11/15 11:20:03;;;;;;;2.75;2.55;;;14.90;65.60;;;;;;5087841;27;45406;-71
2022/11/15 11:22:33;;;;;;;3.05;2.50;;;14.90;65.80;;;;;;5087714;27;45317;-71
2022/11/15 11:25:10;;;;;;;3.15;2.55;;;15.00;65.70;;;;;;5087501;27;45261;-70
2022/11/15 11:27:43;;;;;;;3.83;2.45;;;14.90;65.90;;;;;;5087905;27;45370;-70
2022/11/15 11:30:11;;;;;;;3.00;2.50;;;15.00;65.80;;;;;;5087950;27;45372;-70
2022/11/15 11:33:12;;;;;;;2.78;2.50;;;14.90;65.80;;;;;;5086627;27;46670;-70
2022/11/15 11:35:44;;;;;;;3.05;2.35;;;15.00;66.10;;;;;;5087671;27;45260;-71
2022/11/15 11:38:35;;;;;;;3.53;2.53;;;15.00;65.90;;;;;;5087776;27;45232;-70
2022/11/15 11:41:07;;;;;;;2.50;2.30;;;15.00;66.10;;;;;;5082232;27;45544;-70
2022/11/15 11:43:37;;;;;;;3.65;2.40;;;15.00;66.10;;;;;;5087329;28;46319;-70
2022/11/15 11:46:14;;;;;;;2.88;2.58;;;15.00;66.00;;;;;;5087418;27;45319;-70
2022/11/15 11:48:46;;;;;;;2.47;2.28;;;15.00;65.80;;;;;;5087625;27;45371;-70
2022/11/15 11:51:16;;;;;;;2.60;2.40;;;15.00;65.80;;;;;;5087461;27;45358;-72
2022/11/15 11:53:47;;;;;;;7.75;2.80;;;15.00;65.80;;;;;;5087152;27;46610;-74
2022/11/15 11:56:19;;;;;;;7.93;4.50;;;15.10;66.40;;;;;;5087118;27;46112;-73
2022/11/15 11:58:46;;;;;;;13.02;3.42;;;15.10;67.80;;;;;;5085423;27;45209;-74
2022/11/15 12:01:16;;;;;;;6.65;2.58;;;15.10;67.40;;;;;;5081351;27;45511;-73
2022/11/15 12:03:48;;;;;;;3.72;2.60;;;15.20;67.60;;;;;;5085038;28;45649;-73
2022/11/15 12:06:21;;;;;;;6.45;2.58;;;15.30;67.50;;;;;;5087007;27;45335;-72
2022/11/15 12:08:50;;;;;;;3.80;2.42;;;15.30;67.20;;;;;;5088429;27;45417;-73
2022/11/15 12:11:21;;;;;;;3.45;2.78;;;15.30;67.30;;;;;;5087409;27;45237;-72
2022/11/15 12:13:50;;;;;;;8.82;2.78;;;15.30;67.10;;;;;;5087175;28;46401;-72
2022/11/15 12:16:18;;;;;;;3.55;2.90;;;15.40;67.00;;;;;;5086926;27;45266;-70
2022/11/15 12:18:48;;;;;;;3.28;2.55;;;15.40;67.50;;;;;;5086595;27;45229;-71
2022/11/15 12:21:18;;;;;;;16.30;2.80;;;15.40;67.50;;;;;;5090612;27;45406;-73
2022/11/15 12:23:48;;;;;;;6.15;2.88;;;15.50;67.40;;;;;;5089777;27;45516;-72
2022/11/15 12:26:18;;;;;;;11.27;2.97;;;15.60;68.00;;;;;;5086986;27;45387;-70
2022/11/15 12:28:48;;;;;;;7.15;2.85;;;15.60;67.80;;;;;;5088127;27;45206;-71
2022/11/15 12:31:17;;;;;;;6.45;3.20;;;15.60;67.70;;;;;;5087561;27;45469;-72
2022/11/15 12:33:45;;;;;;;4.78;3.10;;;15.70;67.70;;;;;;5086517;28;46449;-73
2022/11/15 12:36:30;;;;;;;4.32;2.55;;;15.70;67.00;;;;;;5086842;27;45309;-71
2022/11/15 12:38:58;;;;;;;5.43;2.97;;;15.70;67.00;;;;;;5087036;28;45343;-72
2022/11/15 12:41:26;;;;;;;4.68;3.10;;;15.70;66.90;;;;;;5086871;27;45524;-72
2022/11/15 12:43:53;;;;;;;3.92;2.95;;;15.80;66.90;;;;;;5086605;28;45274;-71
2022/11/15 12:46:26;;;;;;;14.85;3.25;;;15.80;66.80;;;;;;5086642;27;45192;-70
2022/11/15 12:48:55;;;;;;;8.43;2.55;;;15.80;67.30;;;;;;5086171;27;45279;-71
2022/11/15 12:51:39;;;;;;;5.18;3.03;;;15.80;66.70;;;;;;5086681;27;45290;-72
2022/11/15 12:54:39;;;;;;;6.53;2.47;;;15.90;66.50;;;;;;5073798;27;45466;-76
2022/11/15 12:57:28;;;;;;;8.80;2.70;;;15.90;66.70;;;;;;5077965;28;45458;-71
2022/11/15 12:59:58;;;;;;;5.63;2.55;;;15.90;66.50;;;;;;5059980;27;45443;-71
2022/11/15 13:02:25;;;;;;;5.10;2.40;;;15.90;66.30;;;;;;5085335;28;45640;-71
2022/11/15 13:04:53;;;;;;;4.93;2.28;;;15.90;66.20;;;;;;5086083;28;47594;-72
2022/11/15 13:07:53;;;;;;;8.95;3.13;;;15.90;66.20;;;;;;5085986;27;45339;-71